• Join FlightAware (Why Join?)
  • Login
  • US Flag 
02:22AM EDT


 

Airport Tracker/Info


-or-


 

Live Flight TrackerFlight Track Log ✈ EJA841 ✈ 29-Mar-2014 ✈ KRVS - KICT

Flight Track Log - Related Links

Times and Time Zones

All times are in EDT time to prevent confusion due to time zone crossing. See the EJA841 flight status page for this flight to view local times or setup timezone preferences in your user account.

Time Position Orientation Groundspeed Altitude Reporting Facility
EDT Latitude Longitude Course Direction KTS MPH feet Rate Location/Type
03:01PM 36.0503 -95.9831 330° Northwest 168 193 1,400  Level Kansas City Center
03:02PM 36.1083 -96.0247 330° Northwest 194 223 3,800 2,640 Climbing Kansas City Center
03:03PM 36.1475 -96.0214 North 222 255 6,700 4,800 Climbing Kansas City Center
03:03PM 36.1689 -96.0219 359° North 247 284 8,200 3,120 Climbing Kansas City Center
03:04PM 36.2181 -96.0403 343° North 278 320 9,900 1,020 Climbing Kansas City Center
03:05PM 36.2825 -96.1089 319° Northwest 301 346 10,000  Climbing Kansas City Center
03:06PM 36.3467 -96.1778 319° Northwest 302 348 10,000  Level Kansas City Center
03:07PM 36.4125 -96.2464 320° Northwest 302 348 10,000  Level Kansas City Center
03:08PM 36.4786 -96.3142 321° Northwest 302 348 10,000  Level Kansas City Center
03:09PM 36.5431 -96.3833 319° Northwest 305 351 10,000  Level Kansas City Center
03:10PM 36.6092 -96.4528 320° Northwest 305 351 10,000  Level Kansas City Center
03:11PM 36.6739 -96.5225 319° Northwest 305 351 10,000  Level Kansas City Center
03:12PM 36.7525 -96.6058 320° Northwest 305 351 10,000  Level Kansas City Center
03:13PM 36.8172 -96.6753 319° Northwest 305 351 10,000  Level Kansas City Center
03:14PM 36.8822 -96.7456 319° Northwest 306 352 10,000  Level Kansas City Center
03:15PM 36.9467 -96.8153 319° Northwest 306 352 10,000  Level Kansas City Center
03:15PM 36.9603 -96.8325 315° West 309 356 10,000  Level Kansas City Center
03:16PM 37.0053 -96.8803 320° Northwest 308 354 10,000  Level Kansas City Center
03:16PM 37.0117 -96.8850 329° Northwest 307 353 10,000  Level Kansas City Center
03:17PM 37.0761 -96.9561 319° Northwest 307 353 10,000 -480 Level Kansas City Center
03:18PM 37.1403 -97.0292 318° Northwest 283 326 9,100 -780 Descending Kansas City Center
03:18PM 37.1392 -97.0253 110° East 297 342 9,200 -1,500 Climbing Kansas City Center
03:19PM 37.1886 -97.0900 314° West 264 304 7,700 -1,800 Descending Kansas City Center
03:19PM 37.2008 -97.1028 320° Northwest 276 318 7,400 -1,560 Descending Kansas City Center
03:20PM 37.2556 -97.1689 316° Northwest 266 306 5,900 -1,500 Descending Kansas City Center
03:20PM 37.2533 -97.1664 138° Southeast 267 307 5,900 -900 Level Kansas City Center
03:22PM 37.3581 -97.2939 328° Northwest 266 306 4,000 -960 Descending Kansas City Center
03:24PM 37.4069 -97.3539 316° Northwest 258 297 3,000 -900 Descending Kansas City Center
03:24PM 37.4158 -97.3650 315° West 218 251 3,000  Level Kansas City Center
03:24PM 37.4444 -97.4000 316° Northwest 191 220 3,000  Level Kansas City Center
03:25PM 37.4461 -97.4014 327° Northwest 217 250 3,000  Level Kansas City Center
03:26PM 37.4864 -97.4514 315° West 207 238 3,000  Level Kansas City Center
03:26PM 37.5358 -97.4756 339° North 212 244 3,000  Level Kansas City Center
03:27PM 37.5492 -97.4686 22° Northeast 208 239 3,000 -660 Level Kansas City Center
03:28PM 37.5983 -97.4475 19° North 190 219 2,200 -840 Descending Kansas City Center
03:28PM 37.5997 -97.4453 52° Northeast 201 231 2,200 -540 Level Kansas City Center
03:29PM 37.6383 -97.4258 22° Northeast 175 201 1,600 -600 Descending Kansas City Center
03:31PM 37.6333 -97.4167 322° Northwest  Level FlightAware Approximate